Minot, North Dakota
Current Conditions -  °F | °C
As of 12:54 PM on Friday 24 Oct 2014 (Local Time) from KMOT Reporting Station
Clear Clear  
Wind Chill: 65°   Ceiling: Unl
Heat Index: 65°   Visibility: 10mi
Dew Point: 32°   Wind: 25mph
Humidity: 29%   Direction: 260°W
Pressure: 29.84"   Gusts: 32mph
Location:  48.24°N, 101.29°W
Report Text: KMOT 241754Z 26022G28KT 10SM CLR 18/00 A2984 RMK AO2 PK WND 28034/1714 RAB16E25 SLP106 P0000 60000 T01830000 10183 20106 51009
Loading
Personal Weather Stations






























Interactive Weather Map
Tropical Storm Tracking
New forecast layout! Learn more

10-Day Weather Forecast

Advertisements
Track Severe Weather on mobile